Time;durP1;ratioP1;P1;durP2;ratioP2;P2;SDS_P1;SDS_P2;PMS_P1;PMS_P2;Temp;Humidity;BMP_temperature;BMP_pressure;BME280_temperature;BME280_humidity;BME280_pressure;Samples;Min_cycle;Max_cycle;Signal;HPM_P1;HPM_P2
2023/12/07 00:01:26;;;;;;;43.90;16.83;;;1.50;99.90;;;;;;4952063;28;20046;-63
2023/12/07 00:03:52;;;;;;;42.95;16.98;;;1.50;99.90;;;;;;4952782;28;20030;-63
2023/12/07 00:06:17;;;;;;;40.30;16.45;;;1.50;99.90;;;;;;4950284;29;20047;-63
2023/12/07 00:08:43;;;;;;;39.65;15.90;;;1.50;99.90;;;;;;4955007;28;20026;-62
2023/12/07 00:11:08;;;;;;;42.00;16.25;;;1.40;99.90;;;;;;4968308;28;20096;-65
2023/12/07 00:13:34;;;;;;;42.00;16.67;;;1.40;99.90;;;;;;4961893;28;20102;-63
2023/12/07 00:16:00;;;;;;;37.63;15.52;;;1.40;99.90;;;;;;4952291;28;20110;-62
2023/12/07 00:18:25;;;;;;;42.63;16.92;;;1.50;99.90;;;;;;4949345;28;20023;-62
2023/12/07 00:20:51;;;;;;;40.05;17.63;;;1.40;99.90;;;;;;4951912;28;20042;-62
2023/12/07 00:23:16;;;;;;;41.72;16.15;;;1.40;99.90;;;;;;4955886;28;20082;-64
2023/12/07 00:25:42;;;;;;;41.13;16.48;;;1.40;99.90;;;;;;4961773;28;20088;-62
2023/12/07 00:28:08;;;;;;;40.42;16.92;;;1.40;99.90;;;;;;4956561;28;20038;-65
2023/12/07 00:30:33;;;;;;;39.67;16.10;;;1.40;99.90;;;;;;4955978;28;20472;-63
2023/12/07 00:33:00;;;;;;;43.28;17.10;;;1.50;99.90;;;;;;4956310;28;20027;-62
2023/12/07 00:35:28;;;;;;;38.75;15.93;;;1.50;99.90;;;;;;4950025;28;20114;-62
2023/12/07 00:37:57;;;;;;;40.15;16.75;;;1.50;99.90;;;;;;4964503;28;20067;-63
2023/12/07 00:40:24;;;;;;;44.50;17.40;;;1.50;99.90;;;;;;4949916;28;20066;-62
2023/12/07 00:42:50;;;;;;;43.45;17.80;;;1.50;99.90;;;;;;4959851;28;20032;-62
2023/12/07 00:45:15;;;;;;;40.72;16.60;;;1.50;99.90;;;;;;4961300;28;20178;-62
2023/12/07 00:47:42;;;;;;;47.08;18.45;;;1.50;99.90;;;;;;4968126;28;20066;-63
2023/12/07 00:50:08;;;;;;;69.47;18.98;;;1.40;99.90;;;;;;4960173;28;20399;-63
2023/12/07 00:52:33;;;;;;;46.22;17.45;;;1.30;99.90;;;;;;4952452;28;20710;-63
2023/12/07 00:54:59;;;;;;;44.15;16.88;;;1.10;99.90;;;;;;4961194;28;20062;-62
2023/12/07 00:57:25;;;;;;;45.63;17.58;;;1.10;99.90;;;;;;4951921;28;20035;-62
2023/12/07 00:59:50;;;;;;;44.35;17.63;;;1.20;99.90;;;;;;4955634;28;20039;-62
2023/12/07 01:02:16;;;;;;;41.85;16.77;;;1.20;99.90;;;;;;4950819;28;20467;-63
2023/12/07 01:04:42;;;;;;;40.53;15.70;;;1.20;99.90;;;;;;4953753;28;20035;-63
2023/12/07 01:07:07;;;;;;;37.95;16.23;;;1.30;99.90;;;;;;4957246;28;20506;-63
2023/12/07 01:09:33;;;;;;;39.58;16.60;;;1.30;99.90;;;;;;4949492;28;20027;-63
2023/12/07 01:11:59;;;;;;;41.60;16.35;;;1.30;99.90;;;;;;4951480;28;20090;-62
2023/12/07 01:14:24;;;;;;;38.28;15.57;;;1.20;99.90;;;;;;4956391;28;20345;-62
2023/12/07 01:16:50;;;;;;;38.15;15.02;;;1.20;99.90;;;;;;4960121;28;20396;-62
2023/12/07 01:19:16;;;;;;;43.95;15.68;;;1.20;99.90;;;;;;4954536;28;20105;-62
2023/12/07 01:21:42;;;;;;;39.53;15.52;;;1.30;99.90;;;;;;4952954;28;20039;-63
2023/12/07 01:24:08;;;;;;;38.40;15.32;;;1.30;99.90;;;;;;4956690;28;20027;-63
2023/12/07 01:26:34;;;;;;;39.13;14.65;;;1.30;99.90;;;;;;4964446;28;20051;-64
2023/12/07 01:29:00;;;;;;;46.35;16.20;;;1.30;99.90;;;;;;4960760;28;20078;-62
2023/12/07 01:31:25;;;;;;;39.13;15.07;;;1.30;99.90;;;;;;4959465;28;20032;-63
2023/12/07 01:33:51;;;;;;;41.30;15.85;;;1.30;99.90;;;;;;4951004;28;20576;-62
2023/12/07 01:36:17;;;;;;;35.35;14.73;;;1.30;99.90;;;;;;4949702;29;20031;-63
2023/12/07 01:38:43;;;;;;;38.75;15.77;;;1.40;99.90;;;;;;4957840;28;20035;-62
2023/12/07 01:41:09;;;;;;;38.20;15.65;;;1.40;99.90;;;;;;4953938;28;20051;-62
2023/12/07 01:43:35;;;;;;;38.80;15.93;;;1.50;99.90;;;;;;4955263;28;20316;-62
2023/12/07 01:46:01;;;;;;;37.80;15.25;;;1.50;99.90;;;;;;4954138;28;20031;-63
2023/12/07 01:48:28;;;;;;;38.30;16.17;;;1.50;99.90;;;;;;4954515;28;20041;-64
2023/12/07 01:50:55;;;;;;;35.55;15.18;;;1.40;99.90;;;;;;4957701;28;20646;-63
2023/12/07 01:53:22;;;;;;;36.75;14.68;;;1.50;99.90;;;;;;4954520;28;20114;-63
2023/12/07 01:55:48;;;;;;;36.25;14.73;;;1.50;99.90;;;;;;4953291;28;20117;-63
2023/12/07 01:58:16;;;;;;;40.20;15.18;;;1.50;99.90;;;;;;4953724;29;20396;-66
2023/12/07 02:00:42;;;;;;;37.50;15.10;;;1.50;99.90;;;;;;4954556;28;20126;-62
2023/12/07 02:03:08;;;;;;;39.00;15.70;;;1.50;99.90;;;;;;4960298;28;20035;-64
2023/12/07 02:05:36;;;;;;;38.97;15.75;;;1.40;99.90;;;;;;4952838;29;20043;-64
2023/12/07 02:08:02;;;;;;;40.33;15.20;;;1.40;99.90;;;;;;4953589;28;20039;-63
2023/12/07 02:10:28;;;;;;;36.40;15.40;;;1.40;99.90;;;;;;4953291;28;20046;-63
2023/12/07 02:12:54;;;;;;;36.13;15.85;;;1.40;99.90;;;;;;4970788;28;20616;-63
2023/12/07 02:15:21;;;;;;;40.17;16.38;;;1.40;99.90;;;;;;4962921;28;20479;-63
2023/12/07 02:18:13;;;;;;;35.65;14.75;;;1.40;99.90;;;;;;4953362;28;20113;-63
2023/12/07 02:20:48;;;;;;;38.50;15.85;;;1.40;99.90;;;;;;4953202;28;20150;-63
2023/12/07 02:23:17;;;;;;;38.35;15.43;;;1.40;99.90;;;;;;4950317;28;20042;-67
2023/12/07 02:25:51;;;;;;;35.95;16.33;;;1.50;99.90;;;;;;4964234;28;20077;-63
2023/12/07 02:28:17;;;;;;;35.83;15.02;;;1.50;99.90;;;;;;4971765;28;20110;-66
2023/12/07 02:30:43;;;;;;;36.85;15.45;;;1.50;99.90;;;;;;4971654;28;20452;-63
2023/12/07 02:33:09;;;;;;;34.53;15.38;;;1.50;99.90;;;;;;4975662;28;20027;-63
2023/12/07 02:35:36;;;;;;;38.17;15.50;;;1.60;99.90;;;;;;4984834;28;20243;-63
2023/12/07 02:38:02;;;;;;;36.30;14.63;;;1.50;99.90;;;;;;4971451;28;20039;-63
2023/12/07 02:40:30;;;;;;;33.50;14.95;;;1.50;99.90;;;;;;4970595;28;20081;-63
2023/12/07 02:42:57;;;;;;;37.28;15.25;;;1.50;99.90;;;;;;4971922;28;20027;-64
2023/12/07 02:45:22;;;;;;;39.40;15.60;;;1.50;99.90;;;;;;4970953;28;20047;-64
2023/12/07 02:47:48;;;;;;;38.40;15.77;;;1.50;99.90;;;;;;4972003;28;20034;-64
2023/12/07 02:50:14;;;;;;;40.33;15.95;;;1.50;99.90;;;;;;4970791;28;20137;-64
2023/12/07 02:52:40;;;;;;;37.22;15.25;;;1.50;99.90;;;;;;4970940;28;20043;-63
2023/12/07 02:55:07;;;;;;;36.15;15.05;;;1.50;99.90;;;;;;4970711;28;20035;-63
2023/12/07 02:57:33;;;;;;;42.67;16.98;;;1.50;99.90;;;;;;4971066;28;20467;-63
2023/12/07 02:59:59;;;;;;;38.38;16.05;;;1.50;99.90;;;;;;4959901;28;20455;-63
2023/12/07 03:02:25;;;;;;;44.85;16.92;;;1.50;99.90;;;;;;4970919;28;20033;-64
2023/12/07 03:04:51;;;;;;;40.75;16.73;;;1.60;99.90;;;;;;4986385;28;20459;-63
2023/12/07 03:07:16;;;;;;;40.45;15.82;;;1.60;99.90;;;;;;4970706;28;20101;-64
2023/12/07 03:09:42;;;;;;;40.33;15.95;;;1.60;99.90;;;;;;4985797;28;20050;-63
2023/12/07 03:12:08;;;;;;;37.58;15.93;;;1.60;99.90;;;;;;4971738;28;20035;-64
2023/12/07 03:14:33;;;;;;;38.95;16.30;;;1.60;99.90;;;;;;4970527;28;20665;-65
2023/12/07 03:16:59;;;;;;;37.40;15.30;;;1.50;99.90;;;;;;4970103;28;20067;-64
2023/12/07 03:19:25;;;;;;;45.55;16.48;;;1.50;99.90;;;;;;4970582;28;20034;-64
2023/12/07 03:21:51;;;;;;;39.17;16.58;;;1.50;99.90;;;;;;4971575;28;20117;-63
2023/12/07 03:24:16;;;;;;;41.97;17.05;;;1.40;99.90;;;;;;4974532;28;20054;-63
2023/12/07 03:26:42;;;;;;;40.50;16.77;;;1.50;99.90;;;;;;4952337;28;20102;-62
2023/12/07 03:29:08;;;;;;;41.72;17.58;;;1.40;99.90;;;;;;4951763;28;20027;-62
2023/12/07 03:31:33;;;;;;;43.70;17.52;;;1.50;99.90;;;;;;4957767;28;20982;-61
2023/12/07 03:34:00;;;;;;;42.45;17.55;;;1.40;99.90;;;;;;4954158;28;20404;-63
2023/12/07 03:36:26;;;;;;;46.90;18.05;;;1.40;99.90;;;;;;4958297;28;20035;-63
2023/12/07 03:38:52;;;;;;;42.78;17.60;;;1.40;99.90;;;;;;4951659;28;20030;-62
2023/12/07 03:41:18;;;;;;;42.30;18.00;;;1.40;99.90;;;;;;4952082;28;20035;-62
2023/12/07 03:43:44;;;;;;;41.88;16.58;;;1.40;99.90;;;;;;4950921;28;20483;-64
2023/12/07 03:46:09;;;;;;;42.47;16.63;;;1.40;99.90;;;;;;4937911;29;20047;-63
2023/12/07 03:48:35;;;;;;;43.67;18.05;;;1.40;99.90;;;;;;4950625;29;20031;-62
2023/12/07 03:51:01;;;;;;;42.47;17.40;;;1.40;99.90;;;;;;4951461;29;20086;-62
2023/12/07 03:53:27;;;;;;;40.40;16.65;;;1.40;99.90;;;;;;4950329;29;20031;-63
2023/12/07 03:55:53;;;;;;;45.20;17.30;;;1.40;99.90;;;;;;4939717;29;20058;-62
2023/12/07 03:58:19;;;;;;;40.15;16.40;;;1.40;99.90;;;;;;4951295;29;20035;-63
2023/12/07 04:00:45;;;;;;;41.53;16.73;;;1.40;99.90;;;;;;4950332;28;20397;-63
2023/12/07 04:03:11;;;;;;;39.70;17.23;;;1.40;99.90;;;;;;4950787;29;20488;-62
2023/12/07 04:05:37;;;;;;;41.20;17.08;;;1.40;99.90;;;;;;4950536;29;20404;-63
2023/12/07 04:08:05;;;;;;;42.65;16.17;;;1.40;99.90;;;;;;4951429;29;20035;-62
2023/12/07 04:10:31;;;;;;;38.53;15.60;;;1.30;99.90;;;;;;4950160;29;20074;-62
2023/12/07 04:12:56;;;;;;;37.25;15.52;;;1.30;99.90;;;;;;4940917;29;20046;-63
2023/12/07 04:15:22;;;;;;;35.20;14.90;;;1.30;99.90;;;;;;4950806;29;20045;-65
2023/12/07 04:17:49;;;;;;;38.97;15.45;;;1.30;99.90;;;;;;4950576;29;20032;-62
2023/12/07 04:20:14;;;;;;;37.30;14.77;;;1.30;99.90;;;;;;4951210;29;20082;-63
2023/12/07 04:22:40;;;;;;;38.63;15.75;;;1.30;99.90;;;;;;4949839;29;20039;-62
2023/12/07 04:25:06;;;;;;;34.70;15.20;;;1.30;99.90;;;;;;4957024;28;20070;-63
2023/12/07 04:27:33;;;;;;;36.88;15.63;;;1.30;99.90;;;;;;4969147;28;20038;-63
2023/12/07 04:29:59;;;;;;;36.67;15.43;;;1.30;99.90;;;;;;4969700;28;20038;-63
2023/12/07 04:32:25;;;;;;;34.35;14.60;;;1.30;99.90;;;;;;4969986;28;20027;-65
2023/12/07 04:34:51;;;;;;;34.22;14.82;;;1.30;99.90;;;;;;4970294;28;20045;-62
2023/12/07 04:37:17;;;;;;;35.70;13.30;;;1.20;99.90;;;;;;4969592;28;20027;-63
2023/12/07 04:39:43;;;;;;;31.95;13.02;;;1.20;99.90;;;;;;4969264;28;20623;-62
2023/12/07 04:42:08;;;;;;;31.23;12.75;;;1.20;99.90;;;;;;4970347;28;20034;-62
2023/12/07 04:44:34;;;;;;;33.22;14.15;;;1.20;99.90;;;;;;4969079;28;20527;-62
2023/12/07 04:47:00;;;;;;;31.17;12.88;;;1.10;99.90;;;;;;4969616;28;20046;-63
2023/12/07 04:49:26;;;;;;;31.10;13.55;;;1.10;99.90;;;;;;4955600;28;20023;-64
2023/12/07 04:51:51;;;;;;;36.28;13.80;;;1.20;99.90;;;;;;4969616;28;20090;-63
2023/12/07 04:54:17;;;;;;;35.50;13.40;;;1.20;99.90;;;;;;4969535;28;20046;-63
2023/12/07 04:56:43;;;;;;;32.67;13.85;;;1.30;99.90;;;;;;4969228;28;20045;-63
2023/12/07 04:59:10;;;;;;;35.67;13.95;;;1.30;99.90;;;;;;4969898;28;20035;-62
2023/12/07 05:01:38;;;;;;;33.65;13.95;;;1.30;99.90;;;;;;4963698;28;20026;-62
2023/12/07 05:04:05;;;;;;;30.38;12.90;;;1.20;99.90;;;;;;4970057;28;20054;-62
2023/12/07 05:06:31;;;;;;;33.35;14.45;;;1.30;99.90;;;;;;4968909;28;20035;-63
2023/12/07 05:08:57;;;;;;;37.50;14.25;;;1.20;99.90;;;;;;4969409;28;20037;-63
2023/12/07 05:11:23;;;;;;;34.58;14.20;;;1.20;99.90;;;;;;4969509;28;20035;-63
2023/12/07 05:13:49;;;;;;;39.45;15.07;;;1.20;99.90;;;;;;4968717;28;20387;-63
2023/12/07 05:16:14;;;;;;;34.47;14.57;;;1.10;99.90;;;;;;4969215;28;20151;-64
2023/12/07 05:18:40;;;;;;;34.28;15.07;;;1.10;99.90;;;;;;4968605;28;20030;-63
2023/12/07 05:21:06;;;;;;;36.72;15.10;;;1.20;99.90;;;;;;4969147;28;20035;-65
2023/12/07 05:23:32;;;;;;;38.22;15.07;;;1.10;99.90;;;;;;4968459;28;20034;-64
2023/12/07 05:25:58;;;;;;;33.33;14.10;;;1.10;99.90;;;;;;4969465;28;20051;-64
2023/12/07 05:28:23;;;;;;;37.25;14.75;;;1.10;99.90;;;;;;4958655;28;20074;-64
2023/12/07 05:30:49;;;;;;;35.03;15.20;;;1.10;99.90;;;;;;4949952;28;20027;-64
2023/12/07 05:33:15;;;;;;;40.33;14.73;;;1.00;99.90;;;;;;4950624;28;20507;-64
2023/12/07 05:35:41;;;;;;;38.88;14.77;;;1.00;99.90;;;;;;4949803;28;20035;-64
2023/12/07 05:38:06;;;;;;;41.88;15.85;;;0.90;99.90;;;;;;4946869;28;20031;-64
2023/12/07 05:40:35;;;;;;;37.20;15.13;;;0.90;99.90;;;;;;4958652;28;20034;-64
2023/12/07 05:43:01;;;;;;;37.33;14.60;;;0.90;99.90;;;;;;4968319;28;20027;-64
2023/12/07 05:45:26;;;;;;;36.35;14.68;;;0.80;99.90;;;;;;4959876;28;20555;-66
2023/12/07 05:47:52;;;;;;;37.83;15.27;;;0.70;99.90;;;;;;4951835;28;20041;-64
2023/12/07 05:50:18;;;;;;;36.13;14.88;;;0.60;99.90;;;;;;4966380;28;20039;-63
2023/12/07 05:52:43;;;;;;;32.72;13.52;;;0.60;99.90;;;;;;4952327;28;20606;-64
2023/12/07 05:55:09;;;;;;;35.95;15.38;;;0.50;99.90;;;;;;4968933;28;20042;-64
2023/12/07 05:57:35;;;;;;;35.65;14.82;;;0.50;99.90;;;;;;4967160;28;20109;-63
2023/12/07 06:00:01;;;;;;;30.58;14.00;;;0.40;99.90;;;;;;4961085;28;20038;-64
2023/12/07 06:02:27;;;;;;;38.97;14.85;;;0.40;99.90;;;;;;4959427;28;20489;-64
2023/12/07 06:04:53;;;;;;;38.25;15.35;;;0.30;99.90;;;;;;4966815;28;20073;-63
2023/12/07 06:07:18;;;;;;;38.88;14.77;;;0.30;99.90;;;;;;4956186;28;20046;-64
2023/12/07 06:09:44;;;;;;;37.45;14.65;;;0.30;99.90;;;;;;4951021;28;20065;-64
2023/12/07 06:12:10;;;;;;;38.97;15.50;;;0.30;99.90;;;;;;4956972;28;20464;-64
2023/12/07 06:14:35;;;;;;;38.55;15.43;;;0.30;99.90;;;;;;4968544;28;20026;-64
2023/12/07 06:17:01;;;;;;;37.97;15.43;;;0.30;99.90;;;;;;4955500;28;20022;-64
2023/12/07 06:19:35;;;;;;;36.03;15.52;;;0.30;99.90;;;;;;4963483;28;20376;-64
2023/12/07 06:22:01;;;;;;;36.38;14.45;;;0.30;99.90;;;;;;4954185;28;20069;-64
2023/12/07 06:24:27;;;;;;;41.80;15.63;;;0.30;99.90;;;;;;4963626;28;20067;-64
2023/12/07 06:26:54;;;;;;;36.38;15.05;;;0.20;99.90;;;;;;4973423;28;20104;-63
2023/12/07 06:29:20;;;;;;;39.85;15.55;;;0.20;99.90;;;;;;4968884;28;20038;-63
2023/12/07 06:31:45;;;;;;;37.78;14.85;;;0.10;99.90;;;;;;4969066;28;20084;-62
2023/12/07 06:34:11;;;;;;;36.88;15.48;;;0.10;99.90;;;;;;4992246;28;20030;-63
2023/12/07 06:36:37;;;;;;;34.03;14.80;;;0.00;99.90;;;;;;4965346;28;20043;-63
2023/12/07 06:39:03;;;;;;;37.92;14.25;;;0.00;99.90;;;;;;4972587;28;20077;-63
2023/12/07 06:41:28;;;;;;;46.55;18.02;;;0.00;99.90;;;;;;4971615;28;20387;-62
2023/12/07 06:43:54;;;;;;;55.05;21.05;;;-0.10;99.90;;;;;;4971591;28;20464;-63
2023/12/07 06:46:20;;;;;;;51.40;20.20;;;-0.10;99.90;;;;;;4959514;28;20050;-62
2023/12/07 06:48:46;;;;;;;52.08;18.98;;;-0.20;99.90;;;;;;4959556;28;20887;-63
2023/12/07 06:51:14;;;;;;;44.88;18.25;;;-0.30;99.90;;;;;;4961446;28;20499;-63
2023/12/07 06:53:40;;;;;;;41.53;16.92;;;-0.30;99.90;;;;;;4965548;28;20039;-62
2023/12/07 06:56:07;;;;;;;44.47;17.40;;;-0.20;99.90;;;;;;4961725;28;20058;-63
2023/12/07 06:58:33;;;;;;;39.90;16.38;;;-0.30;99.90;;;;;;4968024;28;20043;-65
2023/12/07 07:00:58;;;;;;;47.20;17.77;;;-0.20;99.90;;;;;;4949741;28;20037;-62
2023/12/07 07:03:24;;;;;;;47.60;17.80;;;-0.20;99.90;;;;;;4981089;28;20065;-63
2023/12/07 07:05:50;;;;;;;43.08;16.45;;;-0.20;99.90;;;;;;4970304;28;20039;-62
2023/12/07 07:08:16;;;;;;;41.85;16.02;;;-0.20;99.90;;;;;;4954259;28;20451;-62
2023/12/07 07:10:42;;;;;;;143.63;18.10;;;-0.20;99.90;;;;;;4970777;28;20045;-63
2023/12/07 07:13:07;;;;;;;252.57;19.10;;;-0.30;99.90;;;;;;4971698;28;20037;-62
2023/12/07 07:15:33;;;;;;;86.20;15.02;;;-0.40;99.90;;;;;;4965212;28;20353;-65
2023/12/07 07:17:59;;;;;;;36.28;14.70;;;-0.50;99.90;;;;;;4966030;28;20369;-64
2023/12/07 07:20:25;;;;;;;41.10;15.23;;;-0.50;99.90;;;;;;4982254;28;20074;-63
2023/12/07 07:22:51;;;;;;;77.03;16.98;;;-0.60;99.90;;;;;;4958978;28;20031;-62
2023/12/07 07:25:18;;;;;;;44.30;18.13;;;-0.60;99.90;;;;;;4964370;28;20511;-63
2023/12/07 07:27:46;;;;;;;83.80;26.23;;;-0.60;99.90;;;;;;4942118;28;20039;-63
2023/12/07 07:30:12;;;;;;;71.60;22.80;;;-0.60;99.90;;;;;;4958629;28;20031;-63
2023/12/07 07:32:38;;;;;;;63.45;21.67;;;-0.60;99.90;;;;;;4962191;28;20043;-63
2023/12/07 07:35:04;;;;;;;58.47;20.88;;;-0.70;99.90;;;;;;4950710;28;20027;-63
2023/12/07 07:37:29;;;;;;;56.65;18.65;;;-0.70;99.90;;;;;;4938087;29;20027;-63
2023/12/07 07:39:55;;;;;;;44.15;16.65;;;-0.70;99.90;;;;;;4956168;28;20015;-63
2023/12/07 07:42:20;;;;;;;55.00;18.83;;;-0.70;99.90;;;;;;4959448;28;20038;-62
2023/12/07 07:44:46;;;;;;;79.97;16.40;;;-0.80;99.90;;;;;;4963675;28;20035;-63
2023/12/07 07:47:12;;;;;;;164.60;17.42;;;-0.80;99.90;;;;;;4940631;28;20047;-62
2023/12/07 07:49:37;;;;;;;41.80;14.05;;;-0.90;99.90;;;;;;4958901;28;20043;-65
2023/12/07 07:52:05;;;;;;;38.03;13.68;;;-0.90;99.90;;;;;;4953702;28;20074;-62
2023/12/07 07:54:30;;;;;;;48.08;12.85;;;-0.80;99.90;;;;;;4964276;28;20031;-63
2023/12/07 07:56:56;;;;;;;68.40;13.20;;;-0.70;99.90;;;;;;4961388;28;20038;-64
2023/12/07 07:59:22;;;;;;;68.72;13.13;;;-0.70;99.90;;;;;;4971000;28;20035;-64
2023/12/07 08:01:48;;;;;;;72.00;14.65;;;-0.70;99.90;;;;;;4967148;28;20045;-62
2023/12/07 08:04:13;;;;;;;53.38;14.73;;;-0.70;99.90;;;;;;4969397;28;20423;-63
2023/12/07 08:06:39;;;;;;;59.15;15.98;;;-0.60;99.90;;;;;;4949377;28;20047;-63
2023/12/07 08:09:05;;;;;;;73.32;16.15;;;-0.60;99.90;;;;;;4951458;29;20039;-63
2023/12/07 08:11:32;;;;;;;38.58;15.10;;;-0.60;99.90;;;;;;4951592;29;20053;-63
2023/12/07 08:13:58;;;;;;;47.25;18.38;;;-0.50;99.90;;;;;;4950809;29;20086;-62
2023/12/07 08:16:24;;;;;;;91.90;18.13;;;-0.50;99.90;;;;;;4956399;28;20035;-63
2023/12/07 08:18:49;;;;;;;41.38;16.30;;;-0.40;99.90;;;;;;4949352;29;20440;-63
2023/12/07 08:21:25;;;;;;;76.35;17.80;;;-0.40;99.90;;;;;;4951804;29;20066;-63
2023/12/07 08:23:51;;;;;;;34.60;14.98;;;-0.40;99.90;;;;;;4950313;28;20388;-63
2023/12/07 08:26:17;;;;;;;46.42;15.70;;;-0.40;99.90;;;;;;4966612;28;20055;-64
2023/12/07 08:28:43;;;;;;;32.08;14.13;;;-0.40;99.90;;;;;;4969981;28;20093;-64
2023/12/07 08:31:10;;;;;;;37.63;15.73;;;-0.30;99.90;;;;;;4937152;28;20784;-63
2023/12/07 08:33:35;;;;;;;68.47;23.20;;;-0.20;99.90;;;;;;4970482;28;20027;-63
2023/12/07 08:36:02;;;;;;;93.78;18.33;;;-0.20;99.90;;;;;;4969677;28;20811;-63
2023/12/07 08:38:28;;;;;;;74.43;17.63;;;-0.10;99.90;;;;;;4954098;28;20038;-63
2023/12/07 08:40:53;;;;;;;80.88;23.80;;;-0.10;99.90;;;;;;4969652;28;20025;-63
2023/12/07 08:43:22;;;;;;;62.78;21.35;;;-0.10;99.90;;;;;;4970386;28;20113;-63
2023/12/07 08:45:49;;;;;;;77.05;25.38;;;0.00;99.90;;;;;;4969161;28;20106;-63
2023/12/07 08:48:15;;;;;;;81.57;18.25;;;0.00;99.90;;;;;;4969886;28;20539;-63
2023/12/07 08:50:40;;;;;;;41.55;18.02;;;0.00;99.90;;;;;;4969366;28;20229;-66
2023/12/07 08:53:06;;;;;;;72.50;21.95;;;0.00;99.90;;;;;;4970056;28;20058;-63
2023/12/07 08:55:32;;;;;;;86.80;28.20;;;0.00;99.90;;;;;;4969696;28;20034;-63
2023/12/07 08:57:59;;;;;;;73.07;25.15;;;0.10;99.90;;;;;;4969240;28;20170;-63
2023/12/07 09:00:25;;;;;;;61.63;24.67;;;0.20;99.90;;;;;;4952973;28;20086;-63
2023/12/07 09:02:51;;;;;;;140.27;24.33;;;0.40;99.90;;;;;;4969004;28;20492;-63
2023/12/07 09:05:18;;;;;;;52.80;21.05;;;0.40;99.90;;;;;;4969693;28;20054;-63
2023/12/07 09:07:44;;;;;;;92.60;21.63;;;0.50;99.90;;;;;;4968877;28;20035;-64
2023/12/07 09:10:10;;;;;;;122.70;24.67;;;0.50;99.90;;;;;;4970113;28;20041;-63
2023/12/07 09:12:36;;;;;;;203.48;25.08;;;0.60;99.90;;;;;;4969749;28;20369;-63
2023/12/07 09:15:07;;;;;;;57.20;20.52;;;0.60;99.90;;;;;;4966427;28;20037;-64
2023/12/07 09:17:33;;;;;;;47.83;20.10;;;0.50;99.90;;;;;;4969774;28;20062;-64
2023/12/07 09:19:58;;;;;;;47.33;20.85;;;0.50;99.90;;;;;;4968860;28;20058;-63
2023/12/07 09:22:25;;;;;;;115.15;49.10;;;0.70;99.90;;;;;;4966496;28;20042;-64
2023/12/07 09:24:50;;;;;;;60.45;25.88;;;1.00;99.90;;;;;;4968673;28;20400;-64
2023/12/07 09:27:16;;;;;;;59.25;25.65;;;1.20;99.90;;;;;;4967181;28;20050;-64
2023/12/07 09:29:42;;;;;;;67.40;27.75;;;1.30;99.90;;;;;;4969090;28;20046;-66
2023/12/07 09:32:08;;;;;;;78.55;31.67;;;1.40;99.90;;;;;;4969804;28;20472;-63
2023/12/07 09:34:34;;;;;;;190.10;70.20;;;1.50;99.90;;;;;;4969455;28;20456;-64
2023/12/07 09:37:09;;;;;;;70.82;29.70;;;1.60;99.90;;;;;;4949655;28;20109;-64
2023/12/07 09:39:35;;;;;;;82.38;33.92;;;1.70;99.90;;;;;;4952574;28;20042;-64
2023/12/07 09:42:02;;;;;;;92.78;39.75;;;1.90;99.90;;;;;;4969260;28;20722;-63
2023/12/07 09:44:28;;;;;;;73.57;31.02;;;2.00;99.90;;;;;;4969892;28;20057;-64
2023/12/07 09:46:54;;;;;;;65.28;27.73;;;2.20;99.90;;;;;;4968798;28;20043;-64
2023/12/07 09:49:20;;;;;;;59.85;25.60;;;2.30;99.90;;;;;;4969546;28;20118;-64
2023/12/07 09:51:46;;;;;;;55.35;23.60;;;2.40;99.90;;;;;;4952718;28;20407;-64
2023/12/07 09:54:13;;;;;;;50.00;20.98;;;2.30;99.90;;;;;;4950387;29;20039;-64
2023/12/07 09:56:39;;;;;;;50.47;20.50;;;2.30;99.90;;;;;;4950277;29;20043;-64
2023/12/07 09:59:05;;;;;;;50.70;18.70;;;2.30;99.90;;;;;;4955932;28;20027;-65
2023/12/07 10:01:31;;;;;;;43.25;18.25;;;2.40;99.90;;;;;;4971712;28;20026;-64
2023/12/07 10:04:19;;;;;;;43.63;18.00;;;2.50;99.90;;;;;;4972603;28;20085;-64
2023/12/07 10:06:46;;;;;;;45.97;17.27;;;2.50;99.90;;;;;;4970763;28;20043;-66
2023/12/07 10:09:11;;;;;;;54.78;20.88;;;2.60;99.90;;;;;;4972588;28;20035;-63
2023/12/07 10:11:38;;;;;;;47.85;17.80;;;2.70;99.90;;;;;;4972962;28;20697;-64
2023/12/07 10:14:07;;;;;;;64.40;23.42;;;2.80;99.90;;;;;;4956340;28;20066;-63
2023/12/07 10:16:35;;;;;;;58.75;22.13;;;2.90;99.90;;;;;;4961950;28;20043;-64
2023/12/07 10:19:23;;;;;;;53.05;20.08;;;3.00;99.90;;;;;;4972095;28;20030;-64
2023/12/07 10:21:52;;;;;;;46.17;19.35;;;3.20;99.90;;;;;;4972120;28;20035;-63
2023/12/07 10:24:22;;;;;;;51.17;18.88;;;3.20;99.90;;;;;;4972440;28;20069;-64
2023/12/07 10:26:49;;;;;;;50.35;16.58;;;3.20;99.90;;;;;;4962901;28;20070;-64
2023/12/07 10:29:17;;;;;;;33.30;13.73;;;3.20;99.90;;;;;;4952775;29;20507;-63
2023/12/07 10:31:44;;;;;;;47.80;16.60;;;3.20;99.90;;;;;;4953444;28;20066;-66
2023/12/07 10:34:09;;;;;;;44.40;18.25;;;3.30;99.90;;;;;;4952978;28;20091;-63
2023/12/07 10:36:35;;;;;;;31.33;14.25;;;3.30;99.90;;;;;;4952949;28;20039;-63
2023/12/07 10:39:01;;;;;;;34.92;14.48;;;3.40;99.90;;;;;;4957041;28;20539;-63
2023/12/07 10:41:28;;;;;;;27.90;11.52;;;3.50;99.90;;;;;;4970467;28;20031;-63
2023/12/07 10:43:59;;;;;;;25.15;11.13;;;3.60;99.90;;;;;;4971744;28;20077;-63
2023/12/07 10:46:26;;;;;;;29.20;13.20;;;3.60;99.90;;;;;;4972552;28;20042;-64
2023/12/07 10:48:59;;;;;;;37.63;15.25;;;3.60;99.90;;;;;;4955847;28;20039;-63
2023/12/07 10:51:37;;;;;;;29.08;12.07;;;3.80;99.90;;;;;;4951866;29;20046;-64
2023/12/07 10:54:04;;;;;;;31.05;12.75;;;3.80;99.90;;;;;;4952941;28;20035;-64
2023/12/07 10:56:41;;;;;;;36.75;13.70;;;3.90;99.90;;;;;;4963577;28;20038;-64
2023/12/07 10:59:11;;;;;;;34.60;14.38;;;3.90;99.90;;;;;;4960680;28;20067;-64
2023/12/07 11:01:42;;;;;;;35.60;14.50;;;3.90;99.90;;;;;;4970160;28;20105;-64
2023/12/07 11:04:14;;;;;;;35.13;14.05;;;3.90;99.90;;;;;;4971441;28;20022;-63
2023/12/07 11:06:47;;;;;;;32.80;14.73;;;4.00;99.90;;;;;;4966411;28;20395;-63
2023/12/07 11:09:32;;;;;;;35.65;14.48;;;4.40;99.90;;;;;;4962584;28;20397;-63
2023/12/07 11:12:28;;;;;;;31.40;13.23;;;4.40;99.90;;;;;;4960440;28;20118;-63
2023/12/07 11:14:53;;;;;;;28.52;11.82;;;4.50;99.90;;;;;;4956029;28;20411;-63
2023/12/07 11:17:22;;;;;;;24.42;11.98;;;4.70;99.90;;;;;;4970271;28;20039;-63
2023/12/07 11:19:48;;;;;;;29.50;13.15;;;4.60;99.90;;;;;;4971511;28;20099;-65
2023/12/07 11:22:14;;;;;;;29.30;13.13;;;4.60;99.90;;;;;;4958666;28;20043;-63
2023/12/07 11:25:00;;;;;;;31.15;13.32;;;4.60;99.90;;;;;;4957020;28;20472;-63
2023/12/07 11:27:30;;;;;;;28.73;12.77;;;4.50;99.90;;;;;;4971145;28;20038;-64
2023/12/07 11:30:00;;;;;;;32.92;12.85;;;4.80;99.90;;;;;;4970207;28;20089;-64
2023/12/07 11:32:27;;;;;;;27.95;11.65;;;5.00;99.90;;;;;;4971271;28;20078;-64
2023/12/07 11:34:53;;;;;;;29.75;12.60;;;4.80;99.90;;;;;;4970329;28;20041;-63
2023/12/07 11:37:20;;;;;;;23.80;11.90;;;4.80;99.90;;;;;;4970379;28;20035;-63
2023/12/07 11:39:45;;;;;;;28.38;12.65;;;4.90;99.90;;;;;;4970796;28;20468;-63
2023/12/07 11:42:19;;;;;;;28.45;11.43;;;4.80;99.90;;;;;;4970392;28;20110;-64
2023/12/07 11:44:50;;;;;;;28.27;11.45;;;5.10;99.90;;;;;;4970295;28;20031;-63
2023/12/07 11:47:20;;;;;;;24.52;11.55;;;5.20;99.90;;;;;;4971320;28;20039;-64
2023/12/07 11:49:46;;;;;;;18.83;8.48;;;5.10;99.90;;;;;;4970582;28;20124;-64
2023/12/07 11:52:16;;;;;;;23.67;10.40;;;5.20;99.90;;;;;;4970728;28;20110;-64
2023/12/07 11:54:46;;;;;;;23.02;10.00;;;5.30;99.90;;;;;;4971397;28;20058;-64
2023/12/07 11:57:16;;;;;;;19.17;8.18;;;5.30;99.90;;;;;;4970475;28;20051;-64
2023/12/07 11:59:44;;;;;;;23.23;9.82;;;5.40;99.90;;;;;;4971323;28;20053;-64
2023/12/07 12:02:13;;;;;;;19.23;9.50;;;5.50;99.90;;;;;;4970393;28;20042;-64
2023/12/07 12:04:42;;;;;;;22.98;8.50;;;5.50;99.90;;;;;;4970730;28;20473;-63
2023/12/07 12:07:08;;;;;;;16.88;7.53;;;5.50;99.90;;;;;;4968735;28;20039;-63
2023/12/07 12:09:34;;;;;;;23.33;8.75;;;5.60;99.90;;;;;;4970878;28;20089;-63
2023/12/07 12:12:00;;;;;;;22.40;9.82;;;5.90;99.90;;;;;;4970289;28;20034;-63
2023/12/07 12:14:27;;;;;;;11.57;4.72;;;6.40;99.90;;;;;;4970758;28;20034;-63
2023/12/07 12:16:53;;;;;;;7.80;3.80;;;6.70;99.90;;;;;;4970340;28;20126;-65
2023/12/07 12:19:19;;;;;;;7.22;3.80;;;6.70;99.90;;;;;;4970822;28;20110;-63
2023/12/07 12:21:46;;;;;;;9.23;4.28;;;6.80;99.90;;;;;;4971007;28;20578;-64
2023/12/07 12:24:12;;;;;;;7.88;3.47;;;7.00;99.90;;;;;;4969472;28;20057;-64
2023/12/07 12:26:41;;;;;;;10.77;5.10;;;7.10;99.90;;;;;;4970735;28;20106;-64
2023/12/07 12:29:08;;;;;;;11.88;5.30;;;7.10;99.90;;;;;;4951237;28;20046;-64
2023/12/07 12:31:35;;;;;;;10.90;4.20;;;7.30;99.90;;;;;;4951404;29;20031;-63
2023/12/07 12:34:08;;;;;;;8.65;4.35;;;7.50;99.90;;;;;;4950593;28;20031;-64